Hovedside
METAR-TAF:

METAR-TAF

Lufthavner :

Halli lufthavn

Jämsä, Finland

breddegrad: 61-51N, lengdegrad: 024-48E, høyde over havet: 143 m

Gjeldene værobservasjon

Denne rapporten ble laget for 5 minutter siden, klokken 19:50 UTC
Vind 5 kt fra Sør-sørøst
Temperatur 17°C
Luftfuktighet 72%
Trykk 1017 hPa
Sikt 10 km eller mer
ingen skyer under 1500 m og ingen bygeskyer

METAR: EFHA 161950Z AUTO 16005KT CAVOK 17/12 Q1017

Tid: 22:55 (19:55 UTC)

Varsel

Denne rapporten ble laget for 8 timer og 32 minutter siden, klokken 11:23 UTC
Varsel gyldig fra 16. klokken 12 UTC til 16. klokken 14 UTC
Vind 10 kt fra Sør
Sikt 10 km eller mer
Få skyer i en høyde av 4000 ft

TAF: EFHA 161123Z 1612/1614 19010KT 9999 FEW040

Værobservasjoner og værvarsel for over 4000 flyplasser (METAR- og TAF-rapporter).

Tilgjengelige stasjoner er representert av de røde og gule prikkene på kartet.

Hold musepekeren over prikken for å se navnet på stasjonen.

Klikk så for å se værobservasjoner og -varsler.

For å forandre kartet kan du klikke på den grønne knappen med svart kryss for å zoome inn, på den grønne knappen med strek for å zoome ut, eller på de grønne pilene for å se tilstøtende kart.


METAR-TAF: